sensor_id;sensor_type;location;lat;lon;timestamp;pressure;altitude;pressure_sealevel;temperature;humidity
32330;BME280;18807;52.434;13.238;2023-06-01T00:06:33;75871.66;;;-142.05;53.89
32330;BME280;18807;52.434;13.238;2023-06-01T00:14:45;75873.69;;;-142.05;54.01
32330;BME280;18807;52.434;13.238;2023-06-01T00:22:28;75869.63;;;-142.05;53.93
32330;BME280;18807;52.434;13.238;2023-06-01T00:30:38;75867.56;;;-142.05;54.55
32330;BME280;18807;52.434;13.238;2023-06-01T00:46:55;75896.16;;;-142.05;55.72
32330;BME280;18807;52.434;13.238;2023-06-01T00:54:31;75902.28;;;-142.05;56.27
32330;BME280;18807;52.434;13.238;2023-06-01T01:02:19;75904.31;;;-142.05;56.42
32330;BME280;18807;52.434;13.238;2023-06-01T01:10:10;75912.47;;;-142.05;57.33
32330;BME280;18807;52.434;13.238;2023-06-01T01:18:30;75924.72;;;-142.05;58.53
32330;BME280;18807;52.434;13.238;2023-06-01T01:34:51;75949.22;;;-142.05;60.19
32330;BME280;18807;52.434;13.238;2023-06-01T01:43:03;75971.66;;;-142.05;62.61
32330;BME280;18807;52.434;13.238;2023-06-01T01:51:03;75988.00;;;-142.05;64.76
32330;BME280;18807;52.434;13.238;2023-06-01T01:59:09;76024.72;;;-142.05;68.13
32330;BME280;18807;52.434;13.238;2023-06-01T02:06:45;76036.97;;;-142.05;69.28
32330;BME280;18807;52.434;13.238;2023-06-01T02:14:19;76057.38;;;-142.05;71.39
32330;BME280;18807;52.434;13.238;2023-06-01T02:22:03;76096.16;;;-142.05;73.49
32330;BME280;18807;52.434;13.238;2023-06-01T02:29:43;76108.41;;;-142.05;75.66
32330;BME280;18807;52.434;13.238;2023-06-01T02:38:09;76155.34;;;-142.05;81.02
32330;BME280;18807;52.434;13.238;2023-06-01T02:45:57;76173.72;;;-142.05;83.53
32330;BME280;18807;52.434;13.238;2023-06-01T02:53:52;76198.22;;;-142.05;87.32
32330;BME280;18807;52.434;13.238;2023-06-01T03:01:43;76208.41;;;-142.05;89.51
32330;BME280;18807;52.434;13.238;2023-06-01T03:17:36;76224.75;;;-142.05;90.27
32330;BME280;18807;52.434;13.238;2023-06-01T03:25:33;76239.03;;;-142.05;93.37
32330;BME280;18807;52.434;13.238;2023-06-01T03:33:42;76249.22;;;-142.05;92.46
32330;BME280;18807;52.434;13.238;2023-06-01T03:41:39;76255.34;;;-142.05;94.21
32330;BME280;18807;52.434;13.238;2023-06-01T03:49:46;76275.75;;;-142.05;100.00
32330;BME280;18807;52.434;13.238;2023-06-01T04:05:47;76300.25;;;-142.05;100.00
32330;BME280;18807;52.434;13.238;2023-06-01T04:14:34;76310.47;;;-142.05;100.00
32330;BME280;18807;52.434;13.238;2023-06-01T04:22:33;76349.25;;;-142.05;100.00
32330;BME280;18807;52.434;13.238;2023-06-01T04:30:25;76367.63;;;-142.05;100.00
32330;BME280;18807;52.434;13.238;2023-06-01T04:38:01;76388.03;;;-142.05;100.00
32330;BME280;18807;52.434;13.238;2023-06-01T04:45:47;76420.69;;;-142.05;100.00
32330;BME280;18807;52.434;13.238;2023-06-01T04:53:44;76412.53;;;-142.05;100.00
32330;BME280;18807;52.434;13.238;2023-06-01T05:01:50;76420.69;;;-142.05;100.00
32330;BME280;18807;52.434;13.238;2023-06-01T05:09:25;76412.53;;;-142.05;100.00
32330;BME280;18807;52.434;13.238;2023-06-01T05:17:08;76428.84;;;-142.05;100.00
32330;BME280;18807;52.434;13.238;2023-06-01T05:25:05;76432.94;;;-142.05;100.00
32330;BME280;18807;52.434;13.238;2023-06-01T05:33:08;76430.88;;;-142.05;100.00
32330;BME280;18807;52.434;13.238;2023-06-01T05:40:44;76422.72;;;-142.05;100.00
32330;BME280;18807;52.434;13.238;2023-06-01T05:48:33;76396.19;;;-142.05;100.00
32330;BME280;18807;52.434;13.238;2023-06-01T05:56:20;76383.94;;;-142.05;96.60
32330;BME280;18807;52.434;13.238;2023-06-01T06:04:33;76375.78;;;-142.05;91.45
32330;BME280;18807;52.434;13.238;2023-06-01T06:21:01;76367.63;;;-142.05;87.10
32330;BME280;18807;52.434;13.238;2023-06-01T06:28:47;76357.41;;;-142.05;85.46
32330;BME280;18807;52.434;13.238;2023-06-01T06:36:28;76343.13;;;-142.05;83.98
32330;BME280;18807;52.434;13.238;2023-06-01T06:44:47;76318.63;;;-142.05;80.56
32330;BME280;18807;52.434;13.238;2023-06-01T06:52:29;76320.66;;;-142.05;79.48
32330;BME280;18807;52.434;13.238;2023-06-01T07:00:09;76300.25;;;-142.05;77.95
32330;BME280;18807;52.434;13.238;2023-06-01T07:08:25;76283.94;;;-142.05;76.53
32330;BME280;18807;52.434;13.238;2023-06-01T07:16:13;76298.22;;;-142.05;74.70
32330;BME280;18807;52.434;13.238;2023-06-01T07:24:19;76265.56;;;-142.05;73.89
32330;BME280;18807;52.434;13.238;2023-06-01T07:32:01;76243.09;;;-142.05;72.15
32330;BME280;18807;52.434;13.238;2023-06-01T07:48:05;76228.81;;;-142.05;67.56
32330;BME280;18807;52.434;13.238;2023-06-01T07:56:08;76161.47;;;-142.05;67.40
32330;BME280;18807;52.434;13.238;2023-06-01T08:04:03;76147.19;;;-142.05;63.75
32330;BME280;18807;52.434;13.238;2023-06-01T08:11:43;76071.66;;;-142.05;64.56
32330;BME280;18807;52.434;13.238;2023-06-01T08:28:01;76006.34;;;-142.05;59.24
32330;BME280;18807;52.434;13.238;2023-06-01T08:35:35;75969.63;;;-142.05;58.03
32330;BME280;18807;52.434;13.238;2023-06-01T08:43:17;75888.00;;;-142.05;59.40
32330;BME280;18807;52.434;13.238;2023-06-01T08:50:53;75839.00;;;-142.05;56.32
32330;BME280;18807;52.434;13.238;2023-06-01T08:58:29;75808.41;;;-142.05;55.18
32330;BME280;18807;52.434;13.238;2023-06-01T09:06:21;75724.72;;;-142.05;52.97
32330;BME280;18807;52.434;13.238;2023-06-01T09:13:56;75714.53;;;-142.05;52.44
32330;BME280;18807;52.434;13.238;2023-06-01T09:21:31;75704.31;;;-142.05;52.91
32330;BME280;18807;52.434;13.238;2023-06-01T09:29:07;75679.84;;;-142.05;51.19
32330;BME280;18807;52.434;13.238;2023-06-01T09:37:05;75612.50;;;-142.05;50.03
32330;BME280;18807;52.434;13.238;2023-06-01T09:44:42;75602.28;;;-142.05;49.88
32330;BME280;18807;52.434;13.238;2023-06-01T09:52:17;75610.44;;;-142.05;49.97
32330;BME280;18807;52.434;13.238;2023-06-01T10:00:21;75577.78;;;-142.05;49.69
32330;BME280;18807;52.434;13.238;2023-06-01T10:07:57;75504.34;;;-142.05;48.02
32330;BME280;18807;52.434;13.238;2023-06-01T10:15:32;75494.13;;;-142.05;47.16
32330;BME280;18807;52.434;13.238;2023-06-01T10:23:06;75451.28;;;-142.05;46.96
32330;BME280;18807;52.434;13.238;2023-06-01T10:31:34;75461.47;;;-142.05;46.03
32330;BME280;18807;52.434;13.238;2023-06-01T10:39:21;75473.72;;;-142.05;46.31
32330;BME280;18807;52.434;13.238;2023-06-01T10:46:56;75437.00;;;-142.05;45.83
32330;BME280;18807;52.434;13.238;2023-06-01T10:54:30;75406.38;;;-142.05;45.62
32330;BME280;18807;52.434;13.238;2023-06-01T11:02:06;75359.47;;;-142.05;44.15
32330;BME280;18807;52.434;13.238;2023-06-01T11:09:43;75359.47;;;-142.05;44.23
32330;BME280;18807;52.434;13.238;2023-06-01T11:17:29;75328.84;;;-142.05;45.35
32330;BME280;18807;52.434;13.238;2023-06-01T11:25:06;75337.00;;;-142.05;44.32
32330;BME280;18807;52.434;13.238;2023-06-01T11:32:44;75316.59;;;-142.05;42.65
32330;BME280;18807;52.434;13.238;2023-06-01T11:40:21;75296.19;;;-142.05;42.80
32330;BME280;18807;52.434;13.238;2023-06-01T11:48:15;75261.50;;;-142.05;41.99
32330;BME280;18807;52.434;13.238;2023-06-01T11:55:53;75239.06;;;-142.05;42.01
32330;BME280;18807;52.434;13.238;2023-06-01T12:03:29;75210.50;;;-142.05;42.22
32330;BME280;18807;52.434;13.238;2023-06-01T12:11:04;75192.13;;;-142.05;41.37
32330;BME280;18807;52.434;13.238;2023-06-01T12:19:10;75173.78;;;-142.05;40.07
32330;BME280;18807;52.434;13.238;2023-06-01T12:26:48;75183.97;;;-142.05;40.54
32330;BME280;18807;52.434;13.238;2023-06-01T12:34:23;75151.34;;;-142.05;40.41
32330;BME280;18807;52.434;13.238;2023-06-01T12:41:57;75135.00;;;-142.05;39.70
32330;BME280;18807;52.434;13.238;2023-06-01T12:49:32;75118.69;;;-142.05;38.79
32330;BME280;18807;52.434;13.238;2023-06-01T12:57:12;75118.69;;;-142.05;38.22
32330;BME280;18807;52.434;13.238;2023-06-01T13:04:48;75104.41;;;-142.05;38.59
32330;BME280;18807;52.434;13.238;2023-06-01T13:12:23;75069.72;;;-142.05;39.31
32330;BME280;18807;52.434;13.238;2023-06-01T13:19:58;75000.34;;;-142.05;38.57
32330;BME280;18807;52.434;13.238;2023-06-01T13:27:32;75022.78;;;-142.05;38.59
32330;BME280;18807;52.434;13.238;2023-06-01T13:35:09;74973.81;;;-142.05;37.79
32330;BME280;18807;52.434;13.238;2023-06-01T13:42:44;74933.03;;;-142.05;38.05
32330;BME280;18807;52.434;13.238;2023-06-01T13:50:19;74906.50;;;-142.05;37.34
32330;BME280;18807;52.434;13.238;2023-06-01T13:57:53;74894.25;;;-142.05;37.20
32330;BME280;18807;52.434;13.238;2023-06-01T14:05:29;74839.16;;;-142.05;35.51
32330;BME280;18807;52.434;13.238;2023-06-01T14:13:22;74792.25;;;-142.05;35.47
32330;BME280;18807;52.434;13.238;2023-06-01T14:20:57;74765.72;;;-142.05;35.86
32330;BME280;18807;52.434;13.238;2023-06-01T14:28:32;74724.91;;;-142.05;36.04
32330;BME280;18807;52.434;13.238;2023-06-01T14:36:08;74720.84;;;-142.05;35.25
32330;BME280;18807;52.434;13.238;2023-06-01T14:43:42;74690.22;;;-142.05;35.43
32330;BME280;18807;52.434;13.238;2023-06-01T14:51:17;74665.75;;;-142.05;35.00
32330;BME280;18807;52.434;13.238;2023-06-01T14:58:52;74620.88;;;-142.05;34.91
32330;BME280;18807;52.434;13.238;2023-06-01T15:06:27;74592.31;;;-142.05;34.66
32330;BME280;18807;52.434;13.238;2023-06-01T15:14:20;74624.94;;;-142.05;34.28
32330;BME280;18807;52.434;13.238;2023-06-01T15:22:13;74622.91;;;-142.05;33.75
32330;BME280;18807;52.434;13.238;2023-06-01T15:29:47;74594.34;;;-142.05;34.11
32330;BME280;18807;52.434;13.238;2023-06-01T15:37:22;74637.19;;;-142.05;32.87
32330;BME280;18807;52.434;13.238;2023-06-01T15:44:57;74573.94;;;-142.05;33.14
32330;BME280;18807;52.434;13.238;2023-06-01T15:52:34;74586.19;;;-142.05;33.33
32330;BME280;18807;52.434;13.238;2023-06-01T16:00:11;74563.75;;;-142.05;33.33
32330;BME280;18807;52.434;13.238;2023-06-01T16:07:47;74539.28;;;-142.05;33.73
32330;BME280;18807;52.434;13.238;2023-06-01T16:15:22;74590.28;;;-142.05;32.84
32330;BME280;18807;52.434;13.238;2023-06-01T16:22:58;74561.72;;;-142.05;32.59
32330;BME280;18807;52.434;13.238;2023-06-01T16:30:32;74539.28;;;-142.05;32.75
32330;BME280;18807;52.434;13.238;2023-06-01T16:38:07;74580.06;;;-142.05;33.12
32330;BME280;18807;52.434;13.238;2023-06-01T16:45:41;74596.38;;;-142.05;33.14
32330;BME280;18807;52.434;13.238;2023-06-01T16:53:17;74614.75;;;-142.05;33.39
32330;BME280;18807;52.434;13.238;2023-06-01T17:00:51;74663.72;;;-142.05;33.49
32330;BME280;18807;52.434;13.238;2023-06-01T17:08:26;74704.50;;;-142.05;34.15
32330;BME280;18807;52.434;13.238;2023-06-01T17:16:00;74731.03;;;-142.05;34.41
32330;BME280;18807;52.434;13.238;2023-06-01T17:23:36;74731.03;;;-142.05;34.23
32330;BME280;18807;52.434;13.238;2023-06-01T17:31:10;74733.06;;;-142.05;34.44
32330;BME280;18807;52.434;13.238;2023-06-01T17:38:46;74782.03;;;-142.05;34.54
32330;BME280;18807;52.434;13.238;2023-06-01T17:46:20;74833.03;;;-142.05;35.20
32330;BME280;18807;52.434;13.238;2023-06-01T17:53:56;74869.78;;;-142.05;35.85
32330;BME280;18807;52.434;13.238;2023-06-01T18:01:30;74904.44;;;-142.05;36.54
32330;BME280;18807;52.434;13.238;2023-06-01T18:09:05;74939.13;;;-142.05;36.96
32330;BME280;18807;52.434;13.238;2023-06-01T18:16:39;74979.94;;;-142.05;37.66
32330;BME280;18807;52.434;13.238;2023-06-01T18:24:19;75022.78;;;-142.05;37.62
32330;BME280;18807;52.434;13.238;2023-06-01T18:31:54;75051.34;;;-142.05;38.04
32330;BME280;18807;52.434;13.238;2023-06-01T18:39:43;75086.03;;;-142.05;38.66
32330;BME280;18807;52.434;13.238;2023-06-01T18:47:17;75116.66;;;-142.05;39.64
32330;BME280;18807;52.434;13.238;2023-06-01T18:54:52;75151.34;;;-142.05;40.51
32330;BME280;18807;52.434;13.238;2023-06-01T19:02:27;75163.56;;;-142.05;41.25
32330;BME280;18807;52.434;13.238;2023-06-01T19:10:05;75179.91;;;-142.05;41.61
32330;BME280;18807;52.434;13.238;2023-06-01T19:17:39;75204.38;;;-142.05;42.02
32330;BME280;18807;52.434;13.238;2023-06-01T19:25:15;75237.03;;;-142.05;42.70
32330;BME280;18807;52.434;13.238;2023-06-01T19:32:49;75290.06;;;-142.05;43.89
32330;BME280;18807;52.434;13.238;2023-06-01T19:40:24;75328.84;;;-142.05;44.56
32330;BME280;18807;52.434;13.238;2023-06-01T19:48:00;75371.69;;;-142.05;45.14
32330;BME280;18807;52.434;13.238;2023-06-01T19:55:35;75406.38;;;-142.05;46.07
32330;BME280;18807;52.434;13.238;2023-06-01T20:03:11;75463.53;;;-142.05;46.69
32330;BME280;18807;52.434;13.238;2023-06-01T20:10:47;75469.66;;;-142.05;46.91
32330;BME280;18807;52.434;13.238;2023-06-01T20:18:21;75500.25;;;-142.05;47.67
32330;BME280;18807;52.434;13.238;2023-06-01T20:25:56;75516.56;;;-142.05;48.04
32330;BME280;18807;52.434;13.238;2023-06-01T20:33:34;75575.75;;;-142.05;49.32
32330;BME280;18807;52.434;13.238;2023-06-01T20:41:13;75583.91;;;-142.05;49.62
32330;BME280;18807;52.434;13.238;2023-06-01T20:48:50;75608.41;;;-142.05;49.98
32330;BME280;18807;52.434;13.238;2023-06-01T20:56:28;75653.31;;;-142.05;51.34
32330;BME280;18807;52.434;13.238;2023-06-01T21:04:03;75677.78;;;-142.05;52.01
32330;BME280;18807;52.434;13.238;2023-06-01T21:11:40;75712.47;;;-142.05;52.99
32330;BME280;18807;52.434;13.238;2023-06-01T21:19:15;75745.13;;;-142.05;54.08
32330;BME280;18807;52.434;13.238;2023-06-01T21:26:50;75765.53;;;-142.05;54.60
32330;BME280;18807;52.434;13.238;2023-06-01T21:34:24;75785.94;;;-142.05;55.47
32330;BME280;18807;52.434;13.238;2023-06-01T21:42:00;75804.31;;;-142.05;55.96
32330;BME280;18807;52.434;13.238;2023-06-01T21:49:34;75824.72;;;-142.05;56.87
32330;BME280;18807;52.434;13.238;2023-06-01T21:57:09;75849.22;;;-142.05;57.21
32330;BME280;18807;52.434;13.238;2023-06-01T22:04:43;75873.69;;;-142.05;58.75
32330;BME280;18807;52.434;13.238;2023-06-01T22:12:18;75904.31;;;-142.05;59.94
32330;BME280;18807;52.434;13.238;2023-06-01T22:19:52;75924.72;;;-142.05;60.96
32330;BME280;18807;52.434;13.238;2023-06-01T22:27:28;75951.25;;;-142.05;61.96
32330;BME280;18807;52.434;13.238;2023-06-01T22:35:02;75971.66;;;-142.05;62.17
32330;BME280;18807;52.434;13.238;2023-06-01T22:42:38;75990.03;;;-142.05;62.92
32330;BME280;18807;52.434;13.238;2023-06-01T22:50:12;75996.16;;;-142.05;62.91
32330;BME280;18807;52.434;13.238;2023-06-01T22:57:47;76041.06;;;-142.05;64.33
32330;BME280;18807;52.434;13.238;2023-06-01T23:05:21;76051.25;;;-142.05;64.09
32330;BME280;18807;52.434;13.238;2023-06-01T23:12:57;76092.06;;;-142.05;65.91
32330;BME280;18807;52.434;13.238;2023-06-01T23:20:38;76110.44;;;-142.05;66.52
32330;BME280;18807;52.434;13.238;2023-06-01T23:28:14;76122.69;;;-142.05;65.98
32330;BME280;18807;52.434;13.238;2023-06-01T23:35:48;76165.56;;;-142.05;68.17
32330;BME280;18807;52.434;13.238;2023-06-01T23:43:24;76173.72;;;-142.05;68.34
32330;BME280;18807;52.434;13.238;2023-06-01T23:50:58;76202.28;;;-142.05;69.47
32330;BME280;18807;52.434;13.238;2023-06-01T23:58:34;76214.53;;;-142.05;70.10
